Time;durP1;ratioP1;P1;durP2;ratioP2;P2;SDS_P1;SDS_P2;PMS_P1;PMS_P2;Temp;Humidity;BMP_temperature;BMP_pressure;BME280_temperature;BME280_humidity;BME280_pressure;Samples;Min_cycle;Max_cycle;Signal;HPM_P1;HPM_P2
2022/05/23 00:01:59;;;;;;;2.78;1.02;;;;;;;8.76;48.76;100569.69;5073734;28;20044;-71
2022/05/23 00:04:24;;;;;;;3.20;1.52;;;;;;;8.73;49.00;100572.13;5073698;28;20036;-70
2022/05/23 00:06:50;;;;;;;4.82;1.20;;;;;;;8.70;49.07;100573.50;5074133;28;20044;-69
2022/05/23 00:09:16;;;;;;;2.53;1.42;;;;;;;8.68;49.34;100574.88;5088483;28;20039;-70
2022/05/23 00:11:42;;;;;;;1.75;1.30;;;;;;;8.63;49.33;100575.66;5082661;28;20502;-70
2022/05/23 00:14:08;;;;;;;2.40;1.27;;;;;;;8.62;49.35;100581.41;5086451;28;20044;-70
2022/05/23 00:16:37;;;;;;;4.43;1.85;;;;;;;8.61;49.82;100582.50;5090931;28;20081;-70
2022/05/23 00:19:03;;;;;;;3.92;2.00;;;;;;;8.62;50.14;100579.47;5092486;28;20071;-70
2022/05/23 00:21:29;;;;;;;1.45;1.10;;;;;;;8.58;49.51;100583.03;5090338;28;20036;-69
2022/05/23 00:23:54;;;;;;;2.20;1.40;;;;;;;8.55;49.77;100578.09;5085410;28;20059;-70
2022/05/23 00:26:21;;;;;;;1.52;1.23;;;;;;;8.54;50.06;100588.22;5092305;28;20035;-70
2022/05/23 00:28:48;;;;;;;1.98;1.23;;;;;;;8.53;49.92;100593.97;5102670;28;20528;-70
2022/05/23 00:31:14;;;;;;;2.25;1.67;;;;;;;8.52;49.76;100598.63;5080392;28;20040;-69
2022/05/23 00:36:26;;;;;;;1.80;1.50;;;;;;;8.52;49.54;100595.88;5085128;28;20081;-69
2022/05/23 00:38:53;;;;;;;2.03;1.63;;;;;;;8.54;49.17;100587.41;5075490;28;20516;-69
2022/05/23 00:44:39;;;;;;;2.28;1.27;;;;;;;8.53;49.27;100586.59;5029969;28;20040;-69
2022/05/23 00:47:19;;;;;;;2.08;1.60;;;;;;;8.56;49.53;100586.03;5072771;28;20139;-69
2022/05/23 00:49:45;;;;;;;2.10;1.38;;;;;;;8.58;48.49;100578.38;5073667;28;20446;-69
2022/05/23 00:52:27;;;;;;;1.45;0.88;;;;;;;8.57;48.80;100586.88;5079242;28;20032;-69
2022/05/23 00:54:56;;;;;;;2.28;1.42;;;;;;;8.56;48.80;100590.69;5089379;28;20137;-69
2022/05/23 00:57:31;;;;;;;6.28;2.08;;;;;;;8.51;48.49;100588.78;5073287;28;20048;-69
2022/05/23 00:59:58;;;;;;;1.67;1.17;;;;;;;8.50;48.68;100580.81;5071533;28;20099;-70
2022/05/23 01:02:27;;;;;;;3.42;1.33;;;;;;;8.47;48.28;100593.09;5087806;28;20044;-69
2022/05/23 01:04:53;;;;;;;1.58;1.17;;;;;;;8.48;48.82;100589.28;5071715;28;20040;-70
2022/05/23 01:07:19;;;;;;;2.92;1.80;;;;;;;8.45;48.35;100581.63;5071744;28;20489;-70
2022/05/23 01:09:44;;;;;;;3.92;1.65;;;;;;;8.43;48.68;100592.00;5073987;28;20036;-69
2022/05/23 01:12:10;;;;;;;2.33;1.42;;;;;;;8.40;48.61;100593.38;5073655;28;20039;-70
2022/05/23 01:14:56;;;;;;;2.40;1.33;;;;;;;8.39;48.91;100591.72;5081304;28;20130;-70
2022/05/23 01:17:23;;;;;;;4.47;1.98;;;;;;;8.40;49.26;100598.84;5071197;28;20045;-70
2022/05/23 01:19:49;;;;;;;2.03;1.40;;;;;;;8.44;48.89;100599.94;5072270;28;20128;-70
2022/05/23 01:22:33;;;;;;;2.30;1.52;;;;;;;8.51;49.16;100598.88;5075444;28;20446;-69
2022/05/23 01:25:11;;;;;;;7.07;1.50;;;;;;;8.52;49.32;100601.34;5075111;28;20032;-69
2022/05/23 01:27:38;;;;;;;2.00;1.48;;;;;;;8.58;49.48;100589.31;5068186;28;20078;-69
2022/05/23 01:30:04;;;;;;;2.47;1.48;;;;;;;8.61;49.08;100594.25;5073598;28;20043;-70
2022/05/23 01:32:34;;;;;;;3.85;1.63;;;;;;;8.58;48.76;100591.25;5084303;28;20043;-70
2022/05/23 01:35:00;;;;;;;2.90;1.60;;;;;;;8.58;48.18;100586.59;5080513;28;20044;-68
2022/05/23 01:37:26;;;;;;;3.13;1.67;;;;;;;8.60;48.01;100589.88;5086966;28;20036;-70
2022/05/23 01:40:18;;;;;;;2.83;1.85;;;;;;;8.61;48.36;100594.25;5062990;28;20056;-70
2022/05/23 01:43:05;;;;;;;2.22;1.42;;;;;;;8.59;47.77;100584.69;5076802;28;20059;-70
2022/05/23 01:45:33;;;;;;;2.63;1.77;;;;;;;8.55;47.39;100594.53;5075684;28;20072;-70
2022/05/23 01:48:11;;;;;;;2.13;1.52;;;;;;;8.62;47.65;100595.06;5090386;28;20122;-70
2022/05/23 01:50:37;;;;;;;2.47;1.48;;;;;;;8.71;46.66;100597.03;5087480;28;20136;-69
2022/05/23 01:53:05;;;;;;;1.90;1.35;;;;;;;8.76;47.44;100596.22;5088259;28;20047;-70
2022/05/23 01:55:38;;;;;;;1.80;1.40;;;;;;;8.86;47.24;100592.69;5090779;28;20096;-70
2022/05/23 01:58:13;;;;;;;1.52;1.42;;;;;;;8.90;46.39;100593.78;5051048;28;20047;-69
2022/05/23 02:03:31;;;;;;;8.57;1.27;;;;;;;9.07;45.95;100597.09;5069777;28;20040;-70
2022/05/23 02:05:58;;;;;;;1.77;1.27;;;;;;;9.13;46.23;100598.72;5071427;28;20045;-70
2022/05/23 02:08:23;;;;;;;1.77;1.23;;;;;;;9.23;45.83;100595.19;5073707;28;20067;-70
2022/05/23 02:10:50;;;;;;;4.95;1.40;;;;;;;9.27;44.29;100591.63;5070369;28;20898;-70
2022/05/23 02:13:23;;;;;;;2.30;1.30;;;;;;;9.37;45.00;100585.31;5071392;28;20048;-69
2022/05/23 02:15:49;;;;;;;2.65;1.58;;;;;;;9.44;44.86;100588.59;5070290;28;20052;-69
2022/05/23 02:18:33;;;;;;;3.60;1.65;;;;;;;9.60;44.63;100600.38;5080420;28;20043;-69
2022/05/23 02:20:58;;;;;;;2.75;1.52;;;;;;;9.76;44.81;100599.25;5089659;28;20052;-69
2022/05/23 02:23:24;;;;;;;1.42;1.30;;;;;;;9.85;44.49;100597.59;5075378;28;20051;-69
2022/05/23 02:25:51;;;;;;;2.47;1.45;;;;;;;9.89;43.80;100593.22;5077493;28;20177;-69
2022/05/23 02:28:36;;;;;;;2.35;1.60;;;;;;;9.97;43.46;100594.56;5081049;28;20075;-69
2022/05/23 02:31:01;;;;;;;4.32;1.70;;;;;;;10.07;43.32;100593.72;5070010;28;20181;-69
2022/05/23 02:33:43;;;;;;;2.35;1.40;;;;;;;10.20;42.67;100595.84;5070225;28;20104;-69
2022/05/23 02:36:31;;;;;;;3.08;1.25;;;;;;;10.38;42.57;100592.50;5059459;28;20514;-69
2022/05/23 02:38:58;;;;;;;2.50;1.48;;;;;;;10.44;42.53;100594.16;5073315;28;20036;-69
2022/05/23 02:41:24;;;;;;;2.60;1.73;;;;;;;10.51;42.49;100596.56;5069387;28;20040;-69
2022/05/23 02:43:50;;;;;;;3.25;1.60;;;;;;;10.56;42.77;100593.78;5083978;28;20383;-69
2022/05/23 02:46:20;;;;;;;2.75;1.67;;;;;;;10.60;43.12;100594.06;5090044;28;20090;-70
2022/05/23 02:48:47;;;;;;;2.78;1.60;;;;;;;10.64;42.62;100587.75;5076998;28;20132;-69
2022/05/23 02:51:12;;;;;;;4.00;1.85;;;;;;;10.72;43.14;100595.38;5069706;28;20127;-69
2022/05/23 02:53:40;;;;;;;3.25;2.05;;;;;;;10.72;43.00;100597.28;5070075;28;20531;-69
2022/05/23 02:56:06;;;;;;;3.13;1.83;;;;;;;10.82;42.85;100594.50;5090240;28;20044;-69
2022/05/23 02:58:31;;;;;;;2.33;1.48;;;;;;;10.92;42.15;100602.66;5087203;28;20486;-69
2022/05/23 03:00:57;;;;;;;2.88;1.60;;;;;;;10.95;41.77;100604.03;5084120;28;20041;-69
2022/05/23 03:03:27;;;;;;;1.92;1.23;;;;;;;10.85;42.84;100596.66;5070798;28;20044;-69
2022/05/23 03:05:57;;;;;;;3.47;1.63;;;;;;;10.96;42.79;100597.44;5083610;28;20036;-69
2022/05/23 03:08:26;;;;;;;2.45;1.58;;;;;;;11.08;42.80;100603.38;5071410;28;20420;-69
2022/05/23 03:10:54;;;;;;;3.37;1.87;;;;;;;11.18;42.21;100601.38;5069082;28;20059;-69
2022/05/23 03:13:21;;;;;;;2.45;1.65;;;;;;;11.25;42.66;100601.03;5068781;28;20346;-70
2022/05/23 03:15:47;;;;;;;4.05;1.30;;;;;;;11.32;41.27;100607.06;5069312;28;20040;-69
2022/05/23 03:18:13;;;;;;;2.50;1.58;;;;;;;11.30;41.27;100613.94;5077743;28;20043;-69
2022/05/23 03:20:41;;;;;;;1.67;0.98;;;;;;;11.29;40.75;100607.63;5075439;28;20052;-69
2022/05/23 03:28:37;;;;;;;1.17;0.90;;;;;;;11.38;40.44;100610.56;5073478;28;20052;-69
2022/05/23 03:31:04;;;;;;;1.40;1.30;;;;;;;11.47;40.58;100617.09;5074301;28;20032;-69
2022/05/23 03:33:30;;;;;;;2.05;1.20;;;;;;;11.68;40.76;100613.06;5074558;28;20162;-69
2022/05/23 03:35:56;;;;;;;4.22;1.67;;;;;;;11.81;40.69;100613.53;5080205;28;20131;-69
2022/05/23 03:38:23;;;;;;;1.90;1.30;;;;;;;12.13;39.81;100618.41;5079859;28;20047;-69
2022/05/23 03:40:48;;;;;;;2.45;1.45;;;;;;;12.28;38.60;100608.03;5072796;28;20041;-69
2022/05/23 03:43:14;;;;;;;2.63;1.55;;;;;;;12.47;38.10;100610.84;5056423;28;20091;-69
2022/05/23 03:45:41;;;;;;;1.98;1.10;;;;;;;12.63;37.27;100609.53;5078449;28;20043;-69
2022/05/23 03:48:09;;;;;;;;;;;;;;;12.83;37.50;100608.44;5071324;28;20036;-69
2022/05/23 03:50:36;;;;;;;2.17;1.17;;;;;;;12.92;37.26;100609.41;5089950;28;19920;-69
2022/05/23 03:53:05;;;;;;;3.20;1.40;;;;;;;12.85;37.36;100606.22;5097517;28;20044;-69
2022/05/23 03:55:32;;;;;;;3.28;1.77;;;;;;;12.86;37.11;100605.09;5088069;28;20052;-70
2022/05/23 03:58:13;;;;;;;4.57;1.67;;;;;;;12.53;38.05;100606.94;5090345;28;20051;-70
2022/05/23 04:00:43;;;;;;;5.07;1.30;;;;;;;12.69;37.63;100604.78;5073078;28;20048;-70
2022/05/23 04:03:10;;;;;;;3.95;1.27;;;;;;;12.89;36.77;100611.94;5090408;28;20118;-70
2022/05/23 04:05:40;;;;;;;2.58;1.55;;;;;;;13.06;36.96;100605.91;5102978;28;20135;-70
2022/05/23 04:08:10;;;;;;;2.15;1.30;;;;;;;13.14;34.25;100619.00;5087382;28;20044;-70
2022/05/23 04:10:41;;;;;;;2.55;1.33;;;;;;;13.21;34.77;100605.72;5088388;28;20036;-70
2022/05/23 04:13:07;;;;;;;2.38;1.60;;;;;;;13.35;35.43;100606.56;5081257;28;20044;-70
2022/05/23 04:15:33;;;;;;;3.10;1.70;;;;;;;13.27;35.51;100601.75;5086163;28;20036;-70
2022/05/23 04:17:59;;;;;;;3.28;1.88;;;;;;;13.34;35.83;100602.19;5072223;28;20459;-70
2022/05/23 04:20:26;;;;;;;2.92;1.42;;;;;;;13.57;34.69;100605.97;5073769;28;20049;-70
2022/05/23 04:23:08;;;;;;;3.92;1.50;;;;;;;13.74;35.21;100597.13;5074012;28;20043;-70
2022/05/23 04:25:40;;;;;;;2.50;1.40;;;;;;;13.78;35.23;100595.38;5087361;28;20040;-70
2022/05/23 04:28:08;;;;;;;1.75;1.35;;;;;;;14.25;34.65;100594.22;5075500;28;20043;-70
2022/05/23 04:30:34;;;;;;;4.53;1.33;;;;;;;14.42;33.77;100590.84;5073171;28;20125;-70
2022/05/23 04:35:44;;;;;;;1.98;1.25;;;;;;;13.60;33.61;100591.56;5072121;28;20135;-70
2022/05/23 04:38:11;;;;;;;2.38;1.27;;;;;;;13.34;33.89;100582.88;5071977;28;20131;-70
2022/05/23 04:40:39;;;;;;;2.95;1.40;;;;;;;13.12;33.56;100588.19;5060190;28;20051;-69
2022/05/23 04:43:07;;;;;;;3.40;1.65;;;;;;;12.93;34.04;100599.22;5087999;28;20043;-70
2022/05/23 04:45:33;;;;;;;2.78;1.48;;;;;;;12.98;34.78;100591.69;5084649;28;20036;-71
2022/05/23 04:50:52;;;;;;;3.38;1.60;;;;;;;12.93;33.84;100590.97;5074378;28;20044;-71
2022/05/23 04:53:18;;;;;;;2.83;1.35;;;;;;;12.83;34.48;100597.41;5073285;28;20427;-71
2022/05/23 04:56:16;;;;;;;;;;;;;;;12.84;34.72;100601.84;5073623;28;20044;-70
2022/05/23 04:58:42;;;;;;;2.70;1.40;;;;;;;13.03;34.72;100601.84;5081582;28;20009;-70
2022/05/23 05:01:07;;;;;;;2.85;1.30;;;;;;;13.07;35.27;100594.59;5081703;28;20622;-70
2022/05/23 05:03:33;;;;;;;3.70;2.10;;;;;;;13.35;34.34;100590.03;5091804;28;20051;-70
2022/05/23 05:05:58;;;;;;;4.15;1.42;;;;;;;13.56;34.29;100583.09;5084235;28;20691;-70
2022/05/23 05:08:24;;;;;;;3.00;1.73;;;;;;;13.87;33.09;100590.78;5082400;28;20035;-70
2022/05/23 05:10:54;;;;;;;3.47;1.20;;;;;;;14.29;32.61;100591.66;5083949;28;20048;-71
2022/05/23 05:13:20;;;;;;;2.05;1.38;;;;;;;14.54;32.26;100580.09;5093674;28;20044;-70
2022/05/23 05:15:45;;;;;;;2.08;1.38;;;;;;;14.73;32.07;100591.00;5071777;28;20402;-70
2022/05/23 05:18:26;;;;;;;1.83;1.20;;;;;;;14.94;31.06;100592.19;5077457;28;20104;-71
2022/05/23 05:21:10;;;;;;;2.47;1.58;;;;;;;14.90;31.48;100595.88;5079629;28;20139;-69
2022/05/23 05:24:05;;;;;;;2.17;1.48;;;;;;;14.65;31.84;100578.75;5087475;28;20114;-70
2022/05/23 05:26:35;;;;;;;3.05;1.42;;;;;;;14.38;31.64;100587.03;5073357;28;20041;-69
2022/05/23 05:29:02;;;;;;;1.77;1.15;;;;;;;14.12;31.86;100581.22;5082683;28;20037;-70
2022/05/23 05:31:38;;;;;;;1.60;1.35;;;;;;;14.18;31.68;100597.34;5076959;28;20052;-70
2022/05/23 05:34:28;;;;;;;1.88;1.23;;;;;;;14.19;32.40;100582.44;5067389;28;20044;-71
2022/05/23 05:37:02;;;;;;;2.28;1.40;;;;;;;14.14;32.55;100598.28;5083400;28;20076;-69
2022/05/23 05:39:31;;;;;;;1.65;1.20;;;;;;;14.27;33.08;100585.63;5078924;28;20036;-69
2022/05/23 05:42:12;;;;;;;3.40;1.48;;;;;;;14.35;32.20;100579.38;5091437;28;20118;-69
2022/05/23 05:44:45;;;;;;;1.70;1.30;;;;;;;14.43;32.24;100576.75;5087661;28;20034;-69
2022/05/23 05:47:13;;;;;;;3.47;1.77;;;;;;;14.44;32.54;100578.38;5064249;28;20431;-69
2022/05/23 05:49:41;;;;;;;4.07;1.40;;;;;;;14.62;32.39;100568.31;5055880;28;20043;-69
2022/05/23 05:52:12;;;;;;;4.53;1.80;;;;;;;14.88;32.47;100576.84;5054463;28;20082;-69
2022/05/23 05:55:06;;;;;;;2.53;1.60;;;;;;;15.07;32.38;100582.22;5075871;28;20118;-69
2022/05/23 05:57:32;;;;;;;4.40;1.88;;;;;;;15.42;32.19;100580.53;5086031;28;20477;-71
2022/05/23 06:00:05;;;;;;;2.88;1.50;;;;;;;15.59;31.52;100582.63;5058976;28;20627;-71
2022/05/23 06:02:31;;;;;;;2.60;1.73;;;;;;;15.53;31.33;100581.09;5082010;28;20078;-71
2022/05/23 06:04:56;;;;;;;1.73;1.23;;;;;;;15.45;31.42;100576.34;5076275;28;20463;-71
2022/05/23 06:13:08;;;;;;;3.13;1.55;;;;;;;15.64;31.83;100582.50;5081941;28;20051;-69
2022/05/23 06:15:37;;;;;;;3.25;1.52;;;;;;;15.73;32.20;100575.06;5073080;28;20036;-69
2022/05/23 06:18:02;;;;;;;1.40;1.10;;;;;;;15.46;32.49;100576.00;5070410;28;20400;-69
2022/05/23 06:20:28;;;;;;;3.05;1.20;;;;;;;15.17;33.61;100570.91;5072047;28;20477;-68
2022/05/23 06:22:54;;;;;;;2.17;1.30;;;;;;;15.01;33.93;100575.19;5061893;28;20044;-69
2022/05/23 06:25:20;;;;;;;2.92;1.73;;;;;;;14.89;34.49;100583.19;5053680;28;20036;-71
2022/05/23 06:27:48;;;;;;;2.10;1.20;;;;;;;14.77;34.27;100575.47;5063640;28;20135;-72
2022/05/23 06:30:17;;;;;;;1.73;1.10;;;;;;;14.92;34.51;100571.50;5088481;28;20293;-71
2022/05/23 06:32:43;;;;;;;1.35;0.98;;;;;;;14.93;34.62;100574.00;5088467;28;20123;-71
2022/05/23 06:35:12;;;;;;;1.10;1.00;;;;;;;14.74;34.55;100576.88;5054345;28;20039;-71
2022/05/23 06:37:40;;;;;;;1.35;1.17;;;;;;;14.85;34.87;100584.94;5085351;28;20174;-71
2022/05/23 06:40:20;;;;;;;1.67;1.10;;;;;;;14.99;34.27;100571.91;5089955;28;20044;-71
2022/05/23 06:43:15;;;;;;;6.72;1.60;;;;;;;15.29;34.41;100562.88;5084070;28;20414;-71
2022/05/23 06:46:10;;;;;;;2.63;1.23;;;;;;;15.56;34.13;100561.09;5089568;28;20101;-71
2022/05/23 06:48:55;;;;;;;1.35;0.90;;;;;;;15.92;33.71;100559.03;5090043;28;20036;-71
2022/05/23 06:51:39;;;;;;;1.10;1.00;;;;;;;16.02;33.26;100565.44;5081931;28;20036;-71
2022/05/23 06:54:04;;;;;;;3.28;0.65;;;;;;;16.04;32.93;100563.16;5073128;28;20044;-71
2022/05/23 06:56:56;;;;;;;1.63;1.00;;;;;;;16.15;32.86;100568.09;5087986;28;20050;-71
2022/05/23 06:59:22;;;;;;;1.75;1.25;;;;;;;16.24;32.58;100551.50;5090267;28;20138;-71
2022/05/23 07:01:48;;;;;;;2.97;1.45;;;;;;;16.05;32.99;100559.25;5088029;28;20087;-69
2022/05/23 07:13:33;;;;;;;4.95;1.50;;;;;;;16.59;32.06;100563.47;5053070;28;20036;-69
2022/05/23 07:15:59;;;;;;;2.80;1.50;;;;;;;16.75;31.43;100561.09;5070458;28;20037;-71
2022/05/23 07:18:27;;;;;;;2.00;1.67;;;;;;;16.78;31.08;100565.97;5053621;28;20044;-68
2022/05/23 07:20:56;;;;;;;5.38;1.85;;;;;;;16.95;30.44;100560.44;5083847;28;20048;-69
2022/05/23 07:23:27;;;;;;;1.88;1.33;;;;;;;16.78;31.24;100552.94;5089940;28;20040;-68
2022/05/23 07:26:04;;;;;;;2.83;1.35;;;;;;;16.72;31.58;100561.75;5089473;28;20043;-68
2022/05/23 07:28:47;;;;;;;2.65;1.13;;;;;;;16.77;31.69;100558.81;5089333;28;20490;-68
2022/05/23 07:31:14;;;;;;;1.98;1.20;;;;;;;16.75;31.75;100563.88;5072683;28;20047;-71
2022/05/23 07:33:40;;;;;;;3.47;1.52;;;;;;;16.86;31.73;100559.66;5081061;28;20044;-71
2022/05/23 07:36:13;;;;;;;2.20;1.17;;;;;;;17.01;32.00;100570.25;5064702;28;20040;-71
2022/05/23 07:38:39;;;;;;;1.48;1.35;;;;;;;16.82;32.25;100569.72;5089113;28;20088;-70
2022/05/23 07:41:09;;;;;;;1.48;1.38;;;;;;;16.70;32.14;100569.56;5088136;28;20044;-71
2022/05/23 07:43:39;;;;;;;1.98;1.20;;;;;;;16.82;32.14;100564.19;5071027;28;20044;-71
2022/05/23 07:46:12;;;;;;;2.78;1.77;;;;;;;17.08;32.32;100566.97;5082253;28;20035;-71
2022/05/23 07:48:47;;;;;;;1.60;1.40;;;;;;;17.19;31.69;100562.75;5073215;28;20040;-71
2022/05/23 07:51:15;;;;;;;6.72;1.83;;;;;;;17.39;31.57;100567.63;5081758;28;20044;-71
2022/05/23 08:02:06;;;;;;;5.75;2.92;;;;;;;17.73;31.89;100563.97;5072103;28;20037;-69
2022/05/23 08:04:33;;;;;;;1.50;1.38;;;;;;;17.57;31.92;100575.91;5069415;28;20068;-70
2022/05/23 08:07:01;;;;;;;9.10;1.92;;;;;;;17.15;32.57;100568.09;5069075;28;20119;-69
2022/05/23 08:09:26;;;;;;;5.85;1.38;;;;;;;16.65;32.93;100577.97;5102681;28;20132;-69
2022/05/23 08:12:11;;;;;;;5.15;1.40;;;;;;;16.29;33.40;100576.25;5074578;28;20040;-69
2022/05/23 08:14:38;;;;;;;1.67;1.25;;;;;;;16.10;34.34;100570.19;5083475;28;20036;-69
2022/05/23 08:17:12;;;;;;;1.75;1.30;;;;;;;16.08;34.10;100566.91;5112954;28;20335;-69
2022/05/23 08:19:41;;;;;;;1.67;1.13;;;;;;;16.02;34.48;100563.47;5113041;28;20046;-70
2022/05/23 08:22:19;;;;;;;4.32;1.50;;;;;;;16.11;34.08;100582.88;5096379;28;20058;-70
2022/05/23 08:25:08;;;;;;;1.98;1.25;;;;;;;16.01;35.19;100570.16;5082728;28;20045;-70
2022/05/23 08:27:35;;;;;;;3.78;1.42;;;;;;;16.02;34.43;100573.75;5075575;28;20100;-70
2022/05/23 08:30:04;;;;;;;3.72;1.55;;;;;;;15.87;34.65;100575.78;5092702;28;20581;-70
2022/05/23 08:32:31;;;;;;;4.18;1.13;;;;;;;15.52;35.33;100573.94;5092344;28;20471;-70
2022/05/23 08:35:16;;;;;;;3.45;1.27;;;;;;;15.29;35.48;100571.19;5092110;28;20494;-70
2022/05/23 08:37:52;;;;;;;4.13;1.30;;;;;;;15.31;35.95;100568.91;5091748;28;20043;-71
2022/05/23 08:40:43;;;;;;;3.50;1.75;;;;;;;15.32;35.85;100575.25;5058909;28;20127;-72
2022/05/23 08:43:09;;;;;;;2.53;1.35;;;;;;;15.14;35.81;100567.97;5088888;28;20506;-71
2022/05/23 08:45:39;;;;;;;2.75;1.33;;;;;;;15.06;35.90;100564.00;5074984;28;20039;-71
2022/05/23 08:48:08;;;;;;;3.22;1.40;;;;;;;15.07;36.32;100566.44;5045122;28;20039;-72
2022/05/23 08:51:10;;;;;;;4.95;1.33;;;;;;;14.92;36.74;100560.44;5071841;28;20032;-72
2022/05/23 08:54:18;;;;;;;2.58;1.25;;;;;;;15.15;36.27;100566.84;5072625;28;20052;-72
2022/05/23 08:56:54;;;;;;;3.72;1.50;;;;;;;15.13;36.86;100561.63;5071709;28;20106;-72
2022/05/23 08:59:39;;;;;;;3.38;1.60;;;;;;;15.19;37.06;100562.31;5072221;28;20048;-72
2022/05/23 09:02:14;;;;;;;2.13;1.35;;;;;;;15.19;36.29;100556.78;5075394;28;20036;-72
2022/05/23 09:04:55;;;;;;;3.35;1.65;;;;;;;15.34;36.41;100548.94;5071733;28;20060;-72
2022/05/23 09:07:29;;;;;;;1.65;1.45;;;;;;;15.58;35.83;100551.34;5070184;28;20481;-73
2022/05/23 09:09:57;;;;;;;2.38;1.48;;;;;;;15.70;35.80;100545.25;5080734;28;20036;-73
2022/05/23 09:12:23;;;;;;;4.22;1.75;;;;;;;15.74;36.18;100548.19;5093097;28;20050;-73
2022/05/23 09:14:48;;;;;;;2.35;1.50;;;;;;;15.74;35.91;100549.03;5092751;28;20028;-73
2022/05/23 09:17:24;;;;;;;2.63;1.20;;;;;;;16.14;35.38;100535.16;5090319;28;20105;-73
2022/05/23 09:20:03;;;;;;;4.22;1.67;;;;;;;16.48;34.88;100535.25;5092335;28;20040;-73
2022/05/23 09:22:53;;;;;;;2.28;1.20;;;;;;;16.44;34.66;100522.38;5092838;28;20534;-73
2022/05/23 09:25:22;;;;;;;1.67;1.30;;;;;;;16.15;35.51;100525.75;5071042;28;20036;-73
2022/05/23 09:28:00;;;;;;;0.50;0.50;;;;;;;15.81;35.92;100523.69;5071330;28;20047;-73
2022/05/23 09:30:27;;;;;;;1.42;0.80;;;;;;;15.35;36.95;100531.19;5071010;28;20433;-73
2022/05/23 09:33:10;;;;;;;3.15;1.60;;;;;;;15.19;37.45;100529.97;5070995;28;20071;-73
2022/05/23 09:35:41;;;;;;;2.28;1.27;;;;;;;15.14;37.75;100519.03;5071647;28;20503;-73
2022/05/23 09:38:17;;;;;;;2.80;1.10;;;;;;;15.07;38.16;100524.16;5072033;28;20052;-73
2022/05/23 09:41:02;;;;;;;2.90;0.90;;;;;;;15.06;38.59;100525.31;5056783;28;20036;-73
2022/05/23 09:49:21;;;;;;;4.00;1.42;;;;;;;14.93;38.45;100517.91;5071737;28;20047;-73
2022/05/23 09:51:47;;;;;;;2.28;1.60;;;;;;;15.03;38.63;100498.31;5078670;28;20046;-73
2022/05/23 09:54:17;;;;;;;3.70;1.70;;;;;;;15.15;38.46;100508.78;5085001;28;20052;-74
2022/05/23 09:56:44;;;;;;;2.03;1.30;;;;;;;15.13;38.59;100511.06;5054064;28;20065;-73
2022/05/23 09:59:22;;;;;;;1.45;1.33;;;;;;;15.11;38.58;100508.63;5072462;28;20813;-73
2022/05/23 10:01:48;;;;;;;2.25;1.30;;;;;;;15.14;38.40;100507.97;5084077;28;20040;-73
2022/05/23 10:04:44;;;;;;;1.73;1.30;;;;;;;15.23;38.45;100500.53;5092054;28;20089;-73
2022/05/23 10:07:28;;;;;;;1.70;1.00;;;;;;;15.30;38.23;100506.47;5086972;28;20052;-73
2022/05/23 10:10:00;;;;;;;1.98;1.15;;;;;;;15.44;37.93;100511.88;5073959;28;20044;-73
2022/05/23 10:12:49;;;;;;;1.52;1.20;;;;;;;15.42;37.97;100503.09;5064976;28;20143;-73
2022/05/23 10:15:28;;;;;;;2.13;1.45;;;;;;;15.39;38.12;100496.25;5070174;28;20628;-73
2022/05/23 10:18:07;;;;;;;2.10;1.40;;;;;;;15.38;38.62;100505.69;5071304;28;20043;-72
2022/05/23 10:20:41;;;;;;;1.50;1.05;;;;;;;15.32;38.46;100512.50;5071255;28;20049;-73
2022/05/23 10:23:18;;;;;;;1.52;0.90;;;;;;;15.27;38.10;100507.09;5071095;28;20037;-73
2022/05/23 10:26:07;;;;;;;4.00;1.17;;;;;;;15.28;38.11;100508.72;5078859;28;20036;-73
2022/05/23 10:28:44;;;;;;;1.70;1.40;;;;;;;15.24;38.66;100507.69;5091285;28;20193;-73
2022/05/23 10:31:36;;;;;;;1.92;1.10;;;;;;;15.31;38.60;100508.09;5073834;28;20046;-73
2022/05/23 10:34:14;;;;;;;8.02;1.80;;;;;;;15.42;38.79;100499.50;5090125;28;20047;-73
2022/05/23 10:36:42;;;;;;;2.85;1.60;;;;;;;15.49;38.38;100505.44;5091455;28;20044;-73
2022/05/23 10:42:23;;;;;;;3.03;1.10;;;;;;;15.52;38.14;100494.53;5085605;28;20044;-73
2022/05/23 10:44:49;;;;;;;1.48;1.27;;;;;;;15.61;38.71;100497.38;5086839;28;20157;-72
2022/05/23 10:47:43;;;;;;;1.55;1.45;;;;;;;15.62;38.30;100504.56;5089891;28;20032;-73
2022/05/23 10:50:09;;;;;;;1.73;1.20;;;;;;;15.60;37.94;100487.44;5090149;28;20044;-73
2022/05/23 10:52:56;;;;;;;1.60;1.33;;;;;;;15.55;38.37;100490.31;5086313;28;20036;-73
2022/05/23 10:56:09;;;;;;;1.85;1.25;;;;;;;15.55;38.10;100484.78;5090775;28;20052;-73
2022/05/23 10:58:43;;;;;;;1.13;0.90;;;;;;;15.48;38.68;100492.72;5080098;28;20048;-73
2022/05/23 11:01:36;;;;;;;1.83;1.05;;;;;;;15.48;38.84;100495.50;5099963;28;20048;-73
2022/05/23 11:04:26;;;;;;;0.98;0.98;;;;;;;15.39;38.08;100496.25;5070912;28;20139;-73
2022/05/23 11:06:55;;;;;;;2.50;1.15;;;;;;;15.30;38.57;100495.41;5070853;28;20083;-73
2022/05/23 11:09:52;;;;;;;2.92;2.10;;;;;;;15.25;38.76;100492.75;5053003;28;20048;-73
2022/05/23 11:12:29;;;;;;;1.70;1.10;;;;;;;15.16;38.66;100494.66;5070824;28;20044;-72
2022/05/23 11:15:09;;;;;;;1.60;1.08;;;;;;;15.17;39.12;100495.47;5069614;28;20044;-72
2022/05/23 11:17:42;;;;;;;2.17;1.40;;;;;;;15.19;39.31;100495.97;5071452;28;20036;-72
2022/05/23 11:20:11;;;;;;;5.55;1.50;;;;;;;15.23;38.84;100495.00;5070902;28;20522;-73
2022/05/23 11:22:45;;;;;;;3.40;1.20;;;;;;;15.28;38.71;100511.50;5070719;28;20072;-73
2022/05/23 11:25:29;;;;;;;2.75;1.35;;;;;;;15.30;38.42;100489.06;5074610;28;20059;-72
2022/05/23 11:34:04;;;;;;;2.88;1.50;;;;;;;15.48;38.52;100492.72;5088820;28;20092;-72
2022/05/23 11:39:42;;;;;;;2.78;2.28;;;;;;;15.39;38.41;100479.66;5090428;28;20483;-73
2022/05/23 11:42:34;;;;;;;1.90;1.33;;;;;;;15.46;38.62;100486.72;5089237;28;20052;-72
2022/05/23 11:48:01;;;;;;;1.60;1.30;;;;;;;15.64;39.00;100494.81;5094707;28;20230;-73
2022/05/23 11:50:48;;;;;;;1.75;1.05;;;;;;;15.64;38.68;100488.44;5088622;28;20040;-73
2022/05/23 11:53:27;;;;;;;1.92;1.27;;;;;;;15.68;38.97;100478.38;5072780;28;20044;-73
2022/05/23 11:55:56;;;;;;;3.35;1.35;;;;;;;15.70;38.31;100481.63;5056171;28;20044;-72
2022/05/23 11:58:36;;;;;;;1.20;1.10;;;;;;;15.68;38.44;100479.19;5072598;28;20053;-73
2022/05/23 12:01:15;;;;;;;2.65;1.30;;;;;;;15.67;38.44;100480.31;5072469;28;20495;-73
2022/05/23 12:03:49;;;;;;;2.00;1.13;;;;;;;15.68;38.48;100472.84;5072592;28;20072;-72
2022/05/23 12:06:36;;;;;;;2.45;1.30;;;;;;;15.67;38.32;100468.44;5074649;28;20036;-72
2022/05/23 12:09:11;;;;;;;1.67;1.20;;;;;;;15.72;38.62;100467.47;5075717;28;20067;-73
2022/05/23 12:11:41;;;;;;;2.42;1.30;;;;;;;15.80;38.89;100455.66;5073909;28;20506;-73
2022/05/23 12:14:21;;;;;;;2.92;1.45;;;;;;;15.85;38.47;100461.03;5074003;28;20055;-73
2022/05/23 12:16:56;;;;;;;1.52;1.08;;;;;;;15.78;38.74;100460.66;5073713;28;20044;-73
2022/05/23 12:19:28;;;;;;;2.13;1.20;;;;;;;15.81;38.82;100454.50;5073830;28;20066;-73
2022/05/23 12:22:15;;;;;;;1.92;1.30;;;;;;;15.87;39.17;100453.22;5073869;28;20123;-73
2022/05/23 12:25:17;;;;;;;1.58;1.00;;;;;;;15.82;38.64;100462.50;5074203;28;20044;-73
2022/05/23 12:27:43;;;;;;;1.33;0.82;;;;;;;15.77;38.94;100459.84;5094095;28;20047;-73
2022/05/23 12:30:20;;;;;;;2.28;1.38;;;;;;;15.76;38.40;100447.16;5085349;28;20036;-72
2022/05/23 12:32:58;;;;;;;2.85;1.40;;;;;;;15.71;38.97;100457.56;5093764;28;20048;-72
2022/05/23 12:35:39;;;;;;;2.28;1.17;;;;;;;15.71;39.36;100461.13;5085296;28;20036;-73
2022/05/23 12:38:58;;;;;;;1.60;1.30;;;;;;;15.74;39.51;100454.97;5078949;28;20058;-73
2022/05/23 12:41:46;;;;;;;1.73;1.20;;;;;;;15.87;39.21;100461.50;5072614;28;20044;-72
2022/05/23 12:44:42;;;;;;;5.80;1.90;;;;;;;15.92;40.26;100462.19;5074056;28;20082;-72
2022/05/23 12:47:19;;;;;;;2.28;1.70;;;;;;;15.82;41.02;100459.72;5086843;28;20040;-73
2022/05/23 12:49:56;;;;;;;3.08;1.73;;;;;;;15.88;42.61;100461.19;5091375;28;20406;-73
2022/05/23 12:52:49;;;;;;;3.35;2.05;;;;;;;15.97;43.27;100459.28;5093072;28;20455;-72
2022/05/23 12:55:18;;;;;;;5.82;2.20;;;;;;;15.97;43.70;100462.03;5091277;28;20052;-73
2022/05/23 12:57:47;;;;;;;3.42;1.85;;;;;;;16.01;43.68;100462.22;5080221;28;20048;-72
2022/05/23 13:00:18;;;;;;;3.35;2.00;;;;;;;15.98;43.26;100458.13;5079722;28;20128;-74